sensor_id;sensor_type;location;lat;lon;timestamp;P1;durP1;ratioP1;P2;durP2;ratioP2
10381;SDS011;11635;53.636;10.120;2023-05-23T19:34:08;16.02;;;4.10;;
10381;SDS011;11635;53.636;10.120;2023-05-23T19:36:35;14.65;;;3.97;;
10381;SDS011;11635;53.636;10.120;2023-05-23T19:39:02;19.15;;;3.97;;
10381;SDS011;11635;53.636;10.120;2023-05-23T19:41:28;15.80;;;4.30;;
10381;SDS011;11635;53.636;10.120;2023-05-23T19:43:56;16.35;;;4.10;;
10381;SDS011;11635;53.636;10.120;2023-05-23T19:51:16;18.48;;;4.38;;
10381;SDS011;11635;53.636;10.120;2023-05-23T19:56:09;11.57;;;4.03;;
10381;SDS011;11635;53.636;10.120;2023-05-23T19:58:35;14.55;;;4.05;;
10381;SDS011;11635;53.636;10.120;2023-05-23T20:52:23;19.10;;;4.75;;
10381;SDS011;11635;53.636;10.120;2023-05-23T20:54:50;20.90;;;5.22;;
10381;SDS011;11635;53.636;10.120;2023-05-23T20:57:16;18.75;;;4.80;;
10381;SDS011;11635;53.636;10.120;2023-05-23T21:04:37;19.10;;;4.80;;
10381;SDS011;11635;53.636;10.120;2023-05-23T21:29:02;19.85;;;5.38;;
10381;SDS011;11635;53.636;10.120;2023-05-23T21:31:28;19.27;;;5.97;;
10381;SDS011;11635;53.636;10.120;2023-05-23T21:33:55;17.30;;;5.43;;
10381;SDS011;11635;53.636;10.120;2023-05-23T21:36:22;17.58;;;5.75;;
10381;SDS011;11635;53.636;10.120;2023-05-23T21:38:48;21.60;;;5.75;;
10381;SDS011;11635;53.636;10.120;2023-05-23T21:41:15;20.40;;;5.63;;
10381;SDS011;11635;53.636;10.120;2023-05-23T21:43:41;26.80;;;6.75;;
10381;SDS011;11635;53.636;10.120;2023-05-23T21:46:11;18.52;;;6.10;;
10381;SDS011;11635;53.636;10.120;2023-05-23T21:48:37;16.25;;;6.45;;
10381;SDS011;11635;53.636;10.120;2023-05-23T21:51:03;16.75;;;5.13;;
10381;SDS011;11635;53.636;10.120;2023-05-23T21:53:30;19.88;;;5.55;;
10381;SDS011;11635;53.636;10.120;2023-05-23T21:55:56;19.52;;;5.60;;
10381;SDS011;11635;53.636;10.120;2023-05-23T21:58:23;24.10;;;5.60;;
10381;SDS011;11635;53.636;10.120;2023-05-23T22:00:49;22.88;;;5.70;;
10381;SDS011;11635;53.636;10.120;2023-05-23T22:03:17;16.73;;;5.47;;
10381;SDS011;11635;53.636;10.120;2023-05-23T22:05:43;18.92;;;6.78;;
10381;SDS011;11635;53.636;10.120;2023-05-23T22:08:10;25.35;;;6.20;;
10381;SDS011;11635;53.636;10.120;2023-05-23T22:10:36;22.02;;;5.88;;
10381;SDS011;11635;53.636;10.120;2023-05-23T22:13:04;19.02;;;5.63;;
10381;SDS011;11635;53.636;10.120;2023-05-23T22:15:31;21.92;;;6.00;;
10381;SDS011;11635;53.636;10.120;2023-05-23T22:17:59;22.45;;;6.45;;
10381;SDS011;11635;53.636;10.120;2023-05-23T22:20:27;25.73;;;5.95;;
10381;SDS011;11635;53.636;10.120;2023-05-23T22:22:53;20.00;;;5.32;;
10381;SDS011;11635;53.636;10.120;2023-05-23T22:25:20;22.27;;;6.00;;
10381;SDS011;11635;53.636;10.120;2023-05-23T22:27:49;24.80;;;6.45;;
10381;SDS011;11635;53.636;10.120;2023-05-23T22:30:15;16.92;;;5.35;;
10381;SDS011;11635;53.636;10.120;2023-05-23T22:32:42;27.00;;;6.30;;
10381;SDS011;11635;53.636;10.120;2023-05-23T22:35:08;26.13;;;6.60;;
10381;SDS011;11635;53.636;10.120;2023-05-23T22:37:36;26.17;;;6.25;;
10381;SDS011;11635;53.636;10.120;2023-05-23T22:40:03;29.50;;;6.85;;
10381;SDS011;11635;53.636;10.120;2023-05-23T22:42:30;23.88;;;6.43;;
10381;SDS011;11635;53.636;10.120;2023-05-23T22:44:56;24.23;;;6.30;;
10381;SDS011;11635;53.636;10.120;2023-05-23T22:47:23;22.10;;;5.53;;
10381;SDS011;11635;53.636;10.120;2023-05-23T22:49:49;23.73;;;6.32;;
10381;SDS011;11635;53.636;10.120;2023-05-23T22:52:20;30.55;;;7.45;;
10381;SDS011;11635;53.636;10.120;2023-05-23T22:54:48;21.20;;;5.82;;
10381;SDS011;11635;53.636;10.120;2023-05-23T22:57:15;19.33;;;5.40;;
10381;SDS011;11635;53.636;10.120;2023-05-23T22:59:42;19.50;;;5.65;;
10381;SDS011;11635;53.636;10.120;2023-05-23T23:02:08;14.68;;;5.13;;
10381;SDS011;11635;53.636;10.120;2023-05-23T23:04:34;22.08;;;5.60;;
10381;SDS011;11635;53.636;10.120;2023-05-23T23:07:02;22.58;;;6.45;;
10381;SDS011;11635;53.636;10.120;2023-05-23T23:09:28;23.70;;;6.43;;
10381;SDS011;11635;53.636;10.120;2023-05-23T23:11:56;22.98;;;5.60;;
10381;SDS011;11635;53.636;10.120;2023-05-23T23:14:23;20.20;;;6.07;;
10381;SDS011;11635;53.636;10.120;2023-05-23T23:16:49;22.55;;;5.90;;
10381;SDS011;11635;53.636;10.120;2023-05-23T23:19:17;18.77;;;6.47;;
10381;SDS011;11635;53.636;10.120;2023-05-23T23:21:43;24.52;;;6.00;;
10381;SDS011;11635;53.636;10.120;2023-05-23T23:24:10;22.85;;;5.95;;
10381;SDS011;11635;53.636;10.120;2023-05-23T23:26:37;29.88;;;6.95;;
10381;SDS011;11635;53.636;10.120;2023-05-23T23:29:05;26.90;;;7.28;;
10381;SDS011;11635;53.636;10.120;2023-05-23T23:31:31;21.80;;;5.45;;
10381;SDS011;11635;53.636;10.120;2023-05-23T23:33:58;28.55;;;6.43;;
10381;SDS011;11635;53.636;10.120;2023-05-23T23:36:24;28.48;;;6.20;;
10381;SDS011;11635;53.636;10.120;2023-05-23T23:38:51;24.13;;;5.53;;
10381;SDS011;11635;53.636;10.120;2023-05-23T23:41:17;18.52;;;6.10;;
10381;SDS011;11635;53.636;10.120;2023-05-23T23:43:45;21.40;;;6.53;;
10381;SDS011;11635;53.636;10.120;2023-05-23T23:46:12;25.17;;;6.47;;
10381;SDS011;11635;53.636;10.120;2023-05-23T23:48:39;24.35;;;6.20;;
10381;SDS011;11635;53.636;10.120;2023-05-23T23:51:05;17.55;;;5.47;;
10381;SDS011;11635;53.636;10.120;2023-05-23T23:53:31;23.25;;;6.32;;
10381;SDS011;11635;53.636;10.120;2023-05-23T23:55:58;23.45;;;6.50;;
10381;SDS011;11635;53.636;10.120;2023-05-23T23:58:25;24.80;;;5.43;;
